sensor_id;sensor_type;location;lat;lon;timestamp;P1;durP1;ratioP1;P2;durP2;ratioP2
36191;SDS011;22233;42.708;23.360;2023-09-30T00:00:36;16.33;;;5.03;;
36191;SDS011;22233;42.708;23.360;2023-09-30T00:03:01;8.75;;;4.78;;
36191;SDS011;22233;42.708;23.360;2023-09-30T00:05:27;8.18;;;4.80;;
36191;SDS011;22233;42.708;23.360;2023-09-30T00:07:52;7.75;;;4.80;;
36191;SDS011;22233;42.708;23.360;2023-09-30T00:10:18;8.82;;;4.85;;
36191;SDS011;22233;42.708;23.360;2023-09-30T00:12:43;7.28;;;4.82;;
36191;SDS011;22233;42.708;23.360;2023-09-30T00:15:10;9.60;;;4.65;;
36191;SDS011;22233;42.708;23.360;2023-09-30T00:17:36;6.85;;;5.07;;
36191;SDS011;22233;42.708;23.360;2023-09-30T00:20:01;6.53;;;4.82;;
36191;SDS011;22233;42.708;23.360;2023-09-30T00:24:54;6.70;;;5.05;;
36191;SDS011;22233;42.708;23.360;2023-09-30T00:27:20;13.65;;;5.45;;
36191;SDS011;22233;42.708;23.360;2023-09-30T00:29:45;7.65;;;4.65;;
36191;SDS011;22233;42.708;23.360;2023-09-30T00:32:11;8.32;;;4.85;;
36191;SDS011;22233;42.708;23.360;2023-09-30T00:34:37;11.63;;;5.05;;
36191;SDS011;22233;42.708;23.360;2023-09-30T00:37:03;8.88;;;4.88;;
36191;SDS011;22233;42.708;23.360;2023-09-30T00:39:28;7.63;;;4.85;;
36191;SDS011;22233;42.708;23.360;2023-09-30T00:41:57;7.80;;;4.70;;
36191;SDS011;22233;42.708;23.360;2023-09-30T00:44:24;9.40;;;4.40;;
36191;SDS011;22233;42.708;23.360;2023-09-30T00:46:53;8.48;;;5.05;;
36191;SDS011;22233;42.708;23.360;2023-09-30T00:51:46;7.45;;;4.47;;
36191;SDS011;22233;42.708;23.360;2023-09-30T00:54:12;15.35;;;5.55;;
36191;SDS011;22233;42.708;23.360;2023-09-30T00:56:41;8.90;;;4.72;;
36191;SDS011;22233;42.708;23.360;2023-09-30T00:59:09;9.77;;;4.40;;
36191;SDS011;22233;42.708;23.360;2023-09-30T01:01:35;7.78;;;4.65;;
36191;SDS011;22233;42.708;23.360;2023-09-30T01:04:01;8.90;;;5.00;;
36191;SDS011;22233;42.708;23.360;2023-09-30T01:06:27;9.88;;;5.15;;
36191;SDS011;22233;42.708;23.360;2023-09-30T01:08:52;10.82;;;5.50;;
36191;SDS011;22233;42.708;23.360;2023-09-30T01:11:18;8.77;;;4.97;;
36191;SDS011;22233;42.708;23.360;2023-09-30T01:13:43;7.53;;;4.50;;
36191;SDS011;22233;42.708;23.360;2023-09-30T01:16:10;10.57;;;5.05;;
36191;SDS011;22233;42.708;23.360;2023-09-30T01:18:36;6.80;;;4.85;;
36191;SDS011;22233;42.708;23.360;2023-09-30T01:21:03;6.63;;;5.13;;
36191;SDS011;22233;42.708;23.360;2023-09-30T01:23:33;8.10;;;5.45;;
36191;SDS011;22233;42.708;23.360;2023-09-30T01:26:03;7.90;;;4.88;;
36191;SDS011;22233;42.708;23.360;2023-09-30T01:28:29;6.22;;;4.25;;
36191;SDS011;22233;42.708;23.360;2023-09-30T01:30:55;8.43;;;4.40;;
36191;SDS011;22233;42.708;23.360;2023-09-30T01:33:21;6.15;;;4.40;;
36191;SDS011;22233;42.708;23.360;2023-09-30T01:35:47;9.13;;;6.05;;
36191;SDS011;22233;42.708;23.360;2023-09-30T01:38:12;18.25;;;6.28;;
36191;SDS011;22233;42.708;23.360;2023-09-30T01:40:38;9.70;;;5.20;;
36191;SDS011;22233;42.708;23.360;2023-09-30T01:43:03;9.95;;;4.78;;
36191;SDS011;22233;42.708;23.360;2023-09-30T01:45:29;8.23;;;5.50;;
36191;SDS011;22233;42.708;23.360;2023-09-30T01:47:54;8.02;;;4.65;;
36191;SDS011;22233;42.708;23.360;2023-09-30T01:50:20;8.65;;;4.65;;
36191;SDS011;22233;42.708;23.360;2023-09-30T01:52:45;7.95;;;5.60;;
36191;SDS011;22233;42.708;23.360;2023-09-30T01:55:10;10.95;;;4.53;;
36191;SDS011;22233;42.708;23.360;2023-09-30T01:57:36;8.85;;;4.75;;
36191;SDS011;22233;42.708;23.360;2023-09-30T02:00:02;9.98;;;4.53;;
36191;SDS011;22233;42.708;23.360;2023-09-30T02:02:27;9.45;;;4.97;;
36191;SDS011;22233;42.708;23.360;2023-09-30T02:04:53;8.82;;;4.78;;
36191;SDS011;22233;42.708;23.360;2023-09-30T02:07:18;9.02;;;4.60;;
36191;SDS011;22233;42.708;23.360;2023-09-30T02:09:44;10.20;;;4.32;;
36191;SDS011;22233;42.708;23.360;2023-09-30T02:12:09;6.47;;;4.82;;
36191;SDS011;22233;42.708;23.360;2023-09-30T02:14:35;8.95;;;4.65;;
36191;SDS011;22233;42.708;23.360;2023-09-30T02:17:00;9.05;;;4.75;;
36191;SDS011;22233;42.708;23.360;2023-09-30T02:19:26;9.48;;;4.82;;
36191;SDS011;22233;42.708;23.360;2023-09-30T02:21:52;9.38;;;5.82;;
36191;SDS011;22233;42.708;23.360;2023-09-30T02:24:18;7.93;;;4.97;;
36191;SDS011;22233;42.708;23.360;2023-09-30T02:26:43;10.00;;;5.18;;
36191;SDS011;22233;42.708;23.360;2023-09-30T02:29:09;7.43;;;5.05;;
36191;SDS011;22233;42.708;23.360;2023-09-30T02:31:34;11.00;;;5.60;;
36191;SDS011;22233;42.708;23.360;2023-09-30T02:34:00;5.88;;;4.68;;
36191;SDS011;22233;42.708;23.360;2023-09-30T02:36:28;9.90;;;5.00;;
36191;SDS011;22233;42.708;23.360;2023-09-30T02:38:54;7.32;;;4.78;;
36191;SDS011;22233;42.708;23.360;2023-09-30T02:41:19;8.20;;;4.82;;
36191;SDS011;22233;42.708;23.360;2023-09-30T02:43:44;10.60;;;4.93;;
36191;SDS011;22233;42.708;23.360;2023-09-30T02:46:11;9.20;;;5.00;;
36191;SDS011;22233;42.708;23.360;2023-09-30T02:48:37;14.93;;;5.65;;
36191;SDS011;22233;42.708;23.360;2023-09-30T02:51:03;14.60;;;4.95;;
36191;SDS011;22233;42.708;23.360;2023-09-30T02:53:28;9.43;;;5.00;;
36191;SDS011;22233;42.708;23.360;2023-09-30T02:55:53;14.30;;;5.40;;
36191;SDS011;22233;42.708;23.360;2023-09-30T02:58:22;7.10;;;5.18;;
36191;SDS011;22233;42.708;23.360;2023-09-30T03:00:48;11.00;;;6.00;;
36191;SDS011;22233;42.708;23.360;2023-09-30T03:03:14;8.02;;;5.00;;
36191;SDS011;22233;42.708;23.360;2023-09-30T03:05:39;11.23;;;4.72;;
36191;SDS011;22233;42.708;23.360;2023-09-30T03:08:05;9.77;;;4.63;;
36191;SDS011;22233;42.708;23.360;2023-09-30T03:10:30;12.10;;;4.68;;
36191;SDS011;22233;42.708;23.360;2023-09-30T03:12:56;7.05;;;4.78;;
36191;SDS011;22233;42.708;23.360;2023-09-30T03:15:26;7.95;;;4.38;;
36191;SDS011;22233;42.708;23.360;2023-09-30T03:17:52;7.15;;;5.38;;
36191;SDS011;22233;42.708;23.360;2023-09-30T03:20:18;8.82;;;4.75;;
36191;SDS011;22233;42.708;23.360;2023-09-30T03:22:45;7.43;;;5.10;;
36191;SDS011;22233;42.708;23.360;2023-09-30T03:25:16;8.05;;;4.68;;
36191;SDS011;22233;42.708;23.360;2023-09-30T03:27:45;10.68;;;5.35;;
36191;SDS011;22233;42.708;23.360;2023-09-30T03:30:12;5.75;;;4.72;;
36191;SDS011;22233;42.708;23.360;2023-09-30T03:32:41;11.23;;;4.85;;
36191;SDS011;22233;42.708;23.360;2023-09-30T03:35:08;7.25;;;4.97;;
36191;SDS011;22233;42.708;23.360;2023-09-30T03:37:42;7.93;;;5.05;;
36191;SDS011;22233;42.708;23.360;2023-09-30T03:40:09;8.05;;;5.47;;
36191;SDS011;22233;42.708;23.360;2023-09-30T03:42:40;6.88;;;5.03;;
36191;SDS011;22233;42.708;23.360;2023-09-30T03:45:07;9.82;;;4.82;;
36191;SDS011;22233;42.708;23.360;2023-09-30T03:47:34;16.92;;;5.78;;
36191;SDS011;22233;42.708;23.360;2023-09-30T03:50:00;11.13;;;6.05;;
36191;SDS011;22233;42.708;23.360;2023-09-30T03:52:28;15.23;;;5.63;;
36191;SDS011;22233;42.708;23.360;2023-09-30T03:54:53;11.15;;;5.43;;
36191;SDS011;22233;42.708;23.360;2023-09-30T03:57:19;14.90;;;5.85;;
36191;SDS011;22233;42.708;23.360;2023-09-30T03:59:44;8.90;;;5.15;;
36191;SDS011;22233;42.708;23.360;2023-09-30T04:02:13;7.65;;;5.57;;
36191;SDS011;22233;42.708;23.360;2023-09-30T04:04:39;11.15;;;5.75;;
36191;SDS011;22233;42.708;23.360;2023-09-30T04:07:05;10.70;;;5.50;;
36191;SDS011;22233;42.708;23.360;2023-09-30T04:09:31;7.93;;;5.15;;
36191;SDS011;22233;42.708;23.360;2023-09-30T04:11:57;9.90;;;5.68;;
36191;SDS011;22233;42.708;23.360;2023-09-30T04:14:23;7.85;;;4.85;;
36191;SDS011;22233;42.708;23.360;2023-09-30T04:16:50;9.75;;;6.13;;
36191;SDS011;22233;42.708;23.360;2023-09-30T04:19:15;13.02;;;5.15;;
36191;SDS011;22233;42.708;23.360;2023-09-30T04:21:41;9.30;;;5.40;;
36191;SDS011;22233;42.708;23.360;2023-09-30T04:24:08;8.13;;;5.82;;
36191;SDS011;22233;42.708;23.360;2023-09-30T04:26:34;8.40;;;6.95;;
36191;SDS011;22233;42.708;23.360;2023-09-30T04:28:59;10.27;;;6.68;;
36191;SDS011;22233;42.708;23.360;2023-09-30T04:31:26;11.40;;;5.68;;
36191;SDS011;22233;42.708;23.360;2023-09-30T04:33:53;12.45;;;5.68;;
36191;SDS011;22233;42.708;23.360;2023-09-30T04:36:19;11.60;;;6.40;;
36191;SDS011;22233;42.708;23.360;2023-09-30T04:38:46;12.77;;;6.38;;
36191;SDS011;22233;42.708;23.360;2023-09-30T04:41:12;10.30;;;6.50;;
36191;SDS011;22233;42.708;23.360;2023-09-30T04:43:38;9.48;;;6.28;;
36191;SDS011;22233;42.708;23.360;2023-09-30T04:46:04;11.18;;;6.70;;
36191;SDS011;22233;42.708;23.360;2023-09-30T04:48:30;20.35;;;7.20;;
36191;SDS011;22233;42.708;23.360;2023-09-30T04:50:57;13.80;;;8.02;;
36191;SDS011;22233;42.708;23.360;2023-09-30T04:53:22;11.30;;;6.68;;
36191;SDS011;22233;42.708;23.360;2023-09-30T04:55:48;12.70;;;7.32;;
36191;SDS011;22233;42.708;23.360;2023-09-30T04:58:17;16.33;;;6.50;;
36191;SDS011;22233;42.708;23.360;2023-09-30T05:00:42;14.82;;;5.90;;
36191;SDS011;22233;42.708;23.360;2023-09-30T05:03:08;10.05;;;5.45;;
36191;SDS011;22233;42.708;23.360;2023-09-30T05:05:33;8.20;;;4.95;;
36191;SDS011;22233;42.708;23.360;2023-09-30T05:08:00;12.02;;;5.70;;
36191;SDS011;22233;42.708;23.360;2023-09-30T05:10:25;13.70;;;8.38;;
36191;SDS011;22233;42.708;23.360;2023-09-30T05:12:51;9.15;;;6.63;;
36191;SDS011;22233;42.708;23.360;2023-09-30T05:15:19;18.10;;;7.95;;
36191;SDS011;22233;42.708;23.360;2023-09-30T05:17:45;10.80;;;6.05;;
36191;SDS011;22233;42.708;23.360;2023-09-30T05:20:11;12.55;;;5.95;;
36191;SDS011;22233;42.708;23.360;2023-09-30T05:22:38;9.20;;;5.95;;
36191;SDS011;22233;42.708;23.360;2023-09-30T05:25:05;6.47;;;5.13;;
36191;SDS011;22233;42.708;23.360;2023-09-30T05:27:32;9.23;;;6.65;;
36191;SDS011;22233;42.708;23.360;2023-09-30T05:29:58;10.95;;;6.35;;
36191;SDS011;22233;42.708;23.360;2023-09-30T05:32:23;11.38;;;6.90;;
36191;SDS011;22233;42.708;23.360;2023-09-30T05:34:51;9.85;;;5.85;;
36191;SDS011;22233;42.708;23.360;2023-09-30T05:37:18;9.75;;;7.10;;
36191;SDS011;22233;42.708;23.360;2023-09-30T05:39:46;13.65;;;6.45;;
36191;SDS011;22233;42.708;23.360;2023-09-30T05:42:13;7.38;;;5.75;;
36191;SDS011;22233;42.708;23.360;2023-09-30T05:44:39;11.73;;;6.15;;
36191;SDS011;22233;42.708;23.360;2023-09-30T05:47:06;12.23;;;5.40;;
36191;SDS011;22233;42.708;23.360;2023-09-30T05:49:31;13.82;;;6.43;;
36191;SDS011;22233;42.708;23.360;2023-09-30T05:51:57;9.07;;;5.53;;
36191;SDS011;22233;42.708;23.360;2023-09-30T05:54:22;8.35;;;5.20;;
36191;SDS011;22233;42.708;23.360;2023-09-30T05:56:48;9.63;;;5.10;;
36191;SDS011;22233;42.708;23.360;2023-09-30T05:59:14;9.32;;;5.50;;
36191;SDS011;22233;42.708;23.360;2023-09-30T06:01:39;11.25;;;5.82;;
36191;SDS011;22233;42.708;23.360;2023-09-30T06:04:06;10.95;;;5.18;;
36191;SDS011;22233;42.708;23.360;2023-09-30T06:06:31;12.50;;;5.20;;
36191;SDS011;22233;42.708;23.360;2023-09-30T06:08:57;10.00;;;5.22;;
36191;SDS011;22233;42.708;23.360;2023-09-30T06:11:23;9.35;;;5.25;;
36191;SDS011;22233;42.708;23.360;2023-09-30T06:13:52;11.82;;;6.30;;
36191;SDS011;22233;42.708;23.360;2023-09-30T06:16:20;10.77;;;5.50;;
36191;SDS011;22233;42.708;23.360;2023-09-30T06:18:46;10.68;;;5.35;;
36191;SDS011;22233;42.708;23.360;2023-09-30T06:21:12;9.45;;;5.28;;
36191;SDS011;22233;42.708;23.360;2023-09-30T06:23:39;7.88;;;5.43;;
36191;SDS011;22233;42.708;23.360;2023-09-30T06:26:05;11.05;;;6.13;;
36191;SDS011;22233;42.708;23.360;2023-09-30T06:28:31;13.65;;;5.35;;
36191;SDS011;22233;42.708;23.360;2023-09-30T06:30:57;15.00;;;6.18;;
36191;SDS011;22233;42.708;23.360;2023-09-30T06:33:23;13.00;;;5.88;;
36191;SDS011;22233;42.708;23.360;2023-09-30T06:35:48;10.10;;;5.85;;
36191;SDS011;22233;42.708;23.360;2023-09-30T06:38:20;15.45;;;5.30;;
36191;SDS011;22233;42.708;23.360;2023-09-30T06:40:46;13.93;;;5.28;;
36191;SDS011;22233;42.708;23.360;2023-09-30T06:43:15;8.70;;;4.90;;
36191;SDS011;22233;42.708;23.360;2023-09-30T06:45:44;12.30;;;5.22;;
36191;SDS011;22233;42.708;23.360;2023-09-30T06:48:11;14.85;;;5.68;;
36191;SDS011;22233;42.708;23.360;2023-09-30T06:50:47;9.23;;;5.45;;
36191;SDS011;22233;42.708;23.360;2023-09-30T06:53:14;14.95;;;5.75;;
36191;SDS011;22233;42.708;23.360;2023-09-30T06:55:41;14.63;;;5.10;;
36191;SDS011;22233;42.708;23.360;2023-09-30T06:58:08;8.32;;;5.82;;
36191;SDS011;22233;42.708;23.360;2023-09-30T07:00:33;12.10;;;6.28;;
36191;SDS011;22233;42.708;23.360;2023-09-30T07:03:00;11.32;;;6.15;;
36191;SDS011;22233;42.708;23.360;2023-09-30T07:05:26;15.70;;;6.07;;
36191;SDS011;22233;42.708;23.360;2023-09-30T07:07:53;14.53;;;6.80;;
36191;SDS011;22233;42.708;23.360;2023-09-30T07:10:18;11.55;;;6.05;;
36191;SDS011;22233;42.708;23.360;2023-09-30T07:12:44;11.90;;;6.13;;
36191;SDS011;22233;42.708;23.360;2023-09-30T07:15:09;8.02;;;5.97;;
36191;SDS011;22233;42.708;23.360;2023-09-30T07:17:36;12.30;;;5.90;;
36191;SDS011;22233;42.708;23.360;2023-09-30T07:20:02;9.88;;;5.95;;
36191;SDS011;22233;42.708;23.360;2023-09-30T07:22:29;15.35;;;6.00;;
36191;SDS011;22233;42.708;23.360;2023-09-30T07:24:56;15.27;;;6.28;;
36191;SDS011;22233;42.708;23.360;2023-09-30T07:27:21;9.85;;;6.20;;
36191;SDS011;22233;42.708;23.360;2023-09-30T07:29:47;11.82;;;6.20;;
36191;SDS011;22233;42.708;23.360;2023-09-30T07:32:13;9.88;;;5.50;;
36191;SDS011;22233;42.708;23.360;2023-09-30T07:34:38;10.45;;;5.22;;
36191;SDS011;22233;42.708;23.360;2023-09-30T07:37:04;13.48;;;5.38;;
36191;SDS011;22233;42.708;23.360;2023-09-30T07:39:29;9.38;;;4.93;;
36191;SDS011;22233;42.708;23.360;2023-09-30T07:41:55;8.77;;;5.17;;
36191;SDS011;22233;42.708;23.360;2023-09-30T07:44:21;17.30;;;7.13;;
36191;SDS011;22233;42.708;23.360;2023-09-30T07:46:46;15.90;;;7.32;;
36191;SDS011;22233;42.708;23.360;2023-09-30T07:49:12;12.25;;;4.55;;
36191;SDS011;22233;42.708;23.360;2023-09-30T07:51:37;10.52;;;4.63;;
36191;SDS011;22233;42.708;23.360;2023-09-30T07:54:04;10.45;;;4.93;;
36191;SDS011;22233;42.708;23.360;2023-09-30T07:56:30;8.40;;;4.65;;
36191;SDS011;22233;42.708;23.360;2023-09-30T07:58:56;6.93;;;4.70;;
36191;SDS011;22233;42.708;23.360;2023-09-30T08:01:21;7.57;;;4.47;;
36191;SDS011;22233;42.708;23.360;2023-09-30T08:03:47;9.40;;;5.00;;
36191;SDS011;22233;42.708;23.360;2023-09-30T08:06:12;9.27;;;4.50;;
36191;SDS011;22233;42.708;23.360;2023-09-30T08:08:38;7.97;;;4.15;;
36191;SDS011;22233;42.708;23.360;2023-09-30T08:11:05;10.43;;;4.47;;
36191;SDS011;22233;42.708;23.360;2023-09-30T08:13:33;19.52;;;5.97;;
36191;SDS011;22233;42.708;23.360;2023-09-30T08:15:59;5.40;;;3.67;;
36191;SDS011;22233;42.708;23.360;2023-09-30T08:18:25;9.10;;;4.40;;
36191;SDS011;22233;42.708;23.360;2023-09-30T08:20:50;7.25;;;4.25;;
36191;SDS011;22233;42.708;23.360;2023-09-30T08:23:15;9.48;;;4.13;;
36191;SDS011;22233;42.708;23.360;2023-09-30T08:25:41;11.43;;;4.60;;
36191;SDS011;22233;42.708;23.360;2023-09-30T08:28:07;8.90;;;4.43;;
36191;SDS011;22233;42.708;23.360;2023-09-30T08:30:34;9.15;;;4.15;;
36191;SDS011;22233;42.708;23.360;2023-09-30T08:33:00;11.05;;;4.45;;
36191;SDS011;22233;42.708;23.360;2023-09-30T08:35:25;9.23;;;4.10;;
36191;SDS011;22233;42.708;23.360;2023-09-30T08:37:51;9.13;;;4.50;;
36191;SDS011;22233;42.708;23.360;2023-09-30T08:40:22;8.98;;;4.60;;
36191;SDS011;22233;42.708;23.360;2023-09-30T08:42:49;14.90;;;4.95;;
36191;SDS011;22233;42.708;23.360;2023-09-30T08:45:17;10.63;;;5.15;;
36191;SDS011;22233;42.708;23.360;2023-09-30T08:47:43;11.95;;;5.07;;
36191;SDS011;22233;42.708;23.360;2023-09-30T08:50:09;13.90;;;4.80;;
36191;SDS011;22233;42.708;23.360;2023-09-30T08:52:35;11.07;;;5.97;;
36191;SDS011;22233;42.708;23.360;2023-09-30T08:55:04;11.73;;;5.35;;
36191;SDS011;22233;42.708;23.360;2023-09-30T08:57:30;11.80;;;4.75;;
36191;SDS011;22233;42.708;23.360;2023-09-30T08:59:56;12.60;;;5.47;;
36191;SDS011;22233;42.708;23.360;2023-09-30T09:02:23;8.32;;;5.15;;
36191;SDS011;22233;42.708;23.360;2023-09-30T09:04:48;10.35;;;5.38;;
36191;SDS011;22233;42.708;23.360;2023-09-30T09:07:14;11.77;;;6.00;;
36191;SDS011;22233;42.708;23.360;2023-09-30T09:09:40;8.82;;;5.70;;
36191;SDS011;22233;42.708;23.360;2023-09-30T09:12:05;12.93;;;5.70;;
36191;SDS011;22233;42.708;23.360;2023-09-30T09:14:37;10.32;;;6.20;;
36191;SDS011;22233;42.708;23.360;2023-09-30T09:17:08;12.35;;;5.75;;
36191;SDS011;22233;42.708;23.360;2023-09-30T09:19:35;11.43;;;5.22;;
36191;SDS011;22233;42.708;23.360;2023-09-30T09:22:02;8.57;;;5.38;;
36191;SDS011;22233;42.708;23.360;2023-09-30T09:24:32;8.07;;;5.72;;
36191;SDS011;22233;42.708;23.360;2023-09-30T09:27:08;8.73;;;4.30;;
36191;SDS011;22233;42.708;23.360;2023-09-30T09:29:34;9.77;;;5.15;;
36191;SDS011;22233;42.708;23.360;2023-09-30T09:34:37;6.75;;;5.18;;
36191;SDS011;22233;42.708;23.360;2023-09-30T09:37:12;7.13;;;4.40;;
36191;SDS011;22233;42.708;23.360;2023-09-30T09:39:39;8.10;;;5.07;;
36191;SDS011;22233;42.708;23.360;2023-09-30T09:42:04;8.40;;;4.43;;
36191;SDS011;22233;42.708;23.360;2023-09-30T09:44:31;6.97;;;4.38;;
36191;SDS011;22233;42.708;23.360;2023-09-30T09:47:01;9.02;;;3.97;;
36191;SDS011;22233;42.708;23.360;2023-09-30T09:49:30;7.60;;;4.05;;
36191;SDS011;22233;42.708;23.360;2023-09-30T09:51:57;8.25;;;4.32;;
36191;SDS011;22233;42.708;23.360;2023-09-30T09:54:23;6.70;;;5.00;;
36191;SDS011;22233;42.708;23.360;2023-09-30T09:56:49;10.07;;;4.28;;
36191;SDS011;22233;42.708;23.360;2023-09-30T09:59:18;6.28;;;4.47;;
36191;SDS011;22233;42.708;23.360;2023-09-30T10:01:44;12.60;;;4.97;;
36191;SDS011;22233;42.708;23.360;2023-09-30T10:04:12;7.68;;;4.10;;
36191;SDS011;22233;42.708;23.360;2023-09-30T10:06:40;6.38;;;4.60;;
36191;SDS011;22233;42.708;23.360;2023-09-30T10:09:09;10.60;;;4.05;;
36191;SDS011;22233;42.708;23.360;2023-09-30T10:11:36;9.63;;;3.67;;
36191;SDS011;22233;42.708;23.360;2023-09-30T10:14:04;8.00;;;3.47;;
36191;SDS011;22233;42.708;23.360;2023-09-30T10:19:10;5.47;;;3.42;;
36191;SDS011;22233;42.708;23.360;2023-09-30T10:24:50;7.25;;;2.70;;
36191;SDS011;22233;42.708;23.360;2023-09-30T10:30:15;3.17;;;2.90;;
36191;SDS011;22233;42.708;23.360;2023-09-30T10:35:15;5.57;;;3.10;;
36191;SDS011;22233;42.708;23.360;2023-09-30T10:37:43;3.88;;;3.13;;
36191;SDS011;22233;42.708;23.360;2023-09-30T10:40:09;7.20;;;2.88;;
36191;SDS011;22233;42.708;23.360;2023-09-30T10:42:51;8.02;;;3.55;;
36191;SDS011;22233;42.708;23.360;2023-09-30T10:48:33;5.75;;;3.00;;
36191;SDS011;22233;42.708;23.360;2023-09-30T10:51:21;4.40;;;3.15;;
36191;SDS011;22233;42.708;23.360;2023-09-30T10:53:53;6.60;;;3.05;;
36191;SDS011;22233;42.708;23.360;2023-09-30T10:56:25;5.65;;;4.53;;
36191;SDS011;22233;42.708;23.360;2023-09-30T10:58:57;5.50;;;2.90;;
36191;SDS011;22233;42.708;23.360;2023-09-30T11:01:24;5.70;;;3.22;;
36191;SDS011;22233;42.708;23.360;2023-09-30T11:03:50;5.65;;;3.25;;
36191;SDS011;22233;42.708;23.360;2023-09-30T11:06:23;10.60;;;3.25;;
36191;SDS011;22233;42.708;23.360;2023-09-30T11:08:52;6.35;;;3.40;;
36191;SDS011;22233;42.708;23.360;2023-09-30T11:11:31;6.28;;;3.33;;
36191;SDS011;22233;42.708;23.360;2023-09-30T11:13:59;6.82;;;3.15;;
36191;SDS011;22233;42.708;23.360;2023-09-30T11:16:24;10.65;;;3.92;;
36191;SDS011;22233;42.708;23.360;2023-09-30T11:18:53;5.80;;;3.75;;
36191;SDS011;22233;42.708;23.360;2023-09-30T11:21:19;7.25;;;3.72;;
36191;SDS011;22233;42.708;23.360;2023-09-30T11:23:45;6.80;;;3.28;;
36191;SDS011;22233;42.708;23.360;2023-09-30T11:26:11;7.97;;;3.85;;
36191;SDS011;22233;42.708;23.360;2023-09-30T11:28:39;5.07;;;3.80;;
36191;SDS011;22233;42.708;23.360;2023-09-30T11:31:12;4.78;;;3.50;;
36191;SDS011;22233;42.708;23.360;2023-09-30T11:33:52;4.78;;;3.67;;
36191;SDS011;22233;42.708;23.360;2023-09-30T11:36:19;6.63;;;3.80;;
36191;SDS011;22233;42.708;23.360;2023-09-30T11:38:46;6.78;;;3.65;;
36191;SDS011;22233;42.708;23.360;2023-09-30T11:41:14;5.30;;;4.35;;
36191;SDS011;22233;42.708;23.360;2023-09-30T11:43:57;10.67;;;5.57;;
36191;SDS011;22233;42.708;23.360;2023-09-30T11:46:27;7.05;;;4.07;;
36191;SDS011;22233;42.708;23.360;2023-09-30T11:48:56;7.07;;;3.38;;
36191;SDS011;22233;42.708;23.360;2023-09-30T11:51:24;3.67;;;3.35;;
36191;SDS011;22233;42.708;23.360;2023-09-30T11:53:51;8.40;;;4.18;;
36191;SDS011;22233;42.708;23.360;2023-09-30T11:56:18;4.93;;;3.53;;
36191;SDS011;22233;42.708;23.360;2023-09-30T11:58:44;4.88;;;3.38;;
36191;SDS011;22233;42.708;23.360;2023-09-30T12:01:11;10.07;;;3.70;;
36191;SDS011;22233;42.708;23.360;2023-09-30T12:03:38;9.75;;;4.32;;
36191;SDS011;22233;42.708;23.360;2023-09-30T12:06:05;6.97;;;3.67;;
36191;SDS011;22233;42.708;23.360;2023-09-30T12:08:31;7.57;;;3.50;;
36191;SDS011;22233;42.708;23.360;2023-09-30T12:10:57;6.70;;;3.28;;
36191;SDS011;22233;42.708;23.360;2023-09-30T12:13:24;8.40;;;3.55;;
36191;SDS011;22233;42.708;23.360;2023-09-30T12:15:50;5.32;;;3.20;;
36191;SDS011;22233;42.708;23.360;2023-09-30T12:18:18;9.85;;;3.60;;
36191;SDS011;22233;42.708;23.360;2023-09-30T12:20:48;7.60;;;3.55;;
36191;SDS011;22233;42.708;23.360;2023-09-30T12:23:14;6.18;;;3.33;;
36191;SDS011;22233;42.708;23.360;2023-09-30T12:25:39;5.28;;;2.72;;
36191;SDS011;22233;42.708;23.360;2023-09-30T12:28:05;7.32;;;3.42;;
36191;SDS011;22233;42.708;23.360;2023-09-30T12:30:30;5.75;;;3.80;;
36191;SDS011;22233;42.708;23.360;2023-09-30T12:32:57;6.93;;;3.53;;
36191;SDS011;22233;42.708;23.360;2023-09-30T12:35:22;5.63;;;4.05;;
36191;SDS011;22233;42.708;23.360;2023-09-30T12:37:48;7.63;;;3.92;;
36191;SDS011;22233;42.708;23.360;2023-09-30T12:40:13;7.10;;;3.40;;
36191;SDS011;22233;42.708;23.360;2023-09-30T12:42:42;6.47;;;3.60;;
36191;SDS011;22233;42.708;23.360;2023-09-30T12:45:08;8.60;;;4.68;;
36191;SDS011;22233;42.708;23.360;2023-09-30T12:47:34;6.05;;;3.65;;
36191;SDS011;22233;42.708;23.360;2023-09-30T12:49:59;9.52;;;3.90;;
36191;SDS011;22233;42.708;23.360;2023-09-30T12:52:24;7.30;;;4.35;;
36191;SDS011;22233;42.708;23.360;2023-09-30T12:54:50;5.25;;;4.00;;
36191;SDS011;22233;42.708;23.360;2023-09-30T12:57:16;5.55;;;3.88;;
36191;SDS011;22233;42.708;23.360;2023-09-30T12:59:45;8.30;;;4.05;;
36191;SDS011;22233;42.708;23.360;2023-09-30T13:02:14;6.63;;;3.85;;
36191;SDS011;22233;42.708;23.360;2023-09-30T13:04:41;6.05;;;3.90;;
36191;SDS011;22233;42.708;23.360;2023-09-30T13:07:11;5.82;;;3.72;;
36191;SDS011;22233;42.708;23.360;2023-09-30T13:09:38;8.98;;;3.70;;
36191;SDS011;22233;42.708;23.360;2023-09-30T13:12:04;7.40;;;4.18;;
36191;SDS011;22233;42.708;23.360;2023-09-30T13:14:30;8.70;;;4.03;;
36191;SDS011;22233;42.708;23.360;2023-09-30T13:16:56;4.65;;;3.47;;
36191;SDS011;22233;42.708;23.360;2023-09-30T13:19:21;8.68;;;4.10;;
36191;SDS011;22233;42.708;23.360;2023-09-30T13:21:48;6.80;;;3.90;;
36191;SDS011;22233;42.708;23.360;2023-09-30T13:24:18;4.60;;;3.70;;
36191;SDS011;22233;42.708;23.360;2023-09-30T13:26:46;5.97;;;4.13;;
36191;SDS011;22233;42.708;23.360;2023-09-30T13:29:12;7.50;;;3.78;;
36191;SDS011;22233;42.708;23.360;2023-09-30T13:31:38;5.22;;;4.22;;
36191;SDS011;22233;42.708;23.360;2023-09-30T13:34:04;7.97;;;3.92;;
36191;SDS011;22233;42.708;23.360;2023-09-30T13:36:30;7.53;;;3.47;;
36191;SDS011;22233;42.708;23.360;2023-09-30T13:38:56;11.40;;;4.18;;
36191;SDS011;22233;42.708;23.360;2023-09-30T13:41:21;7.05;;;3.90;;
36191;SDS011;22233;42.708;23.360;2023-09-30T13:43:47;5.40;;;4.00;;
36191;SDS011;22233;42.708;23.360;2023-09-30T13:46:12;6.97;;;4.20;;
36191;SDS011;22233;42.708;23.360;2023-09-30T13:48:38;9.20;;;4.25;;
36191;SDS011;22233;42.708;23.360;2023-09-30T13:51:07;6.30;;;4.38;;
36191;SDS011;22233;42.708;23.360;2023-09-30T13:53:33;8.00;;;4.00;;
36191;SDS011;22233;42.708;23.360;2023-09-30T13:55:59;11.52;;;4.43;;
36191;SDS011;22233;42.708;23.360;2023-09-30T13:58:25;12.23;;;3.80;;
36191;SDS011;22233;42.708;23.360;2023-09-30T14:00:50;11.60;;;4.32;;
36191;SDS011;22233;42.708;23.360;2023-09-30T14:03:19;7.95;;;3.60;;
36191;SDS011;22233;42.708;23.360;2023-09-30T14:05:45;9.10;;;4.13;;
36191;SDS011;22233;42.708;23.360;2023-09-30T14:08:11;9.10;;;5.32;;
36191;SDS011;22233;42.708;23.360;2023-09-30T14:10:37;14.98;;;4.60;;
36191;SDS011;22233;42.708;23.360;2023-09-30T14:13:03;7.70;;;3.65;;
36191;SDS011;22233;42.708;23.360;2023-09-30T14:15:28;5.47;;;3.67;;
36191;SDS011;22233;42.708;23.360;2023-09-30T14:17:56;4.60;;;3.60;;
36191;SDS011;22233;42.708;23.360;2023-09-30T14:22:48;8.80;;;4.30;;
36191;SDS011;22233;42.708;23.360;2023-09-30T14:25:13;9.30;;;3.88;;
36191;SDS011;22233;42.708;23.360;2023-09-30T14:27:39;8.75;;;3.30;;
36191;SDS011;22233;42.708;23.360;2023-09-30T14:30:05;6.13;;;3.08;;
36191;SDS011;22233;42.708;23.360;2023-09-30T14:32:31;9.73;;;3.97;;
36191;SDS011;22233;42.708;23.360;2023-09-30T14:34:57;13.57;;;3.70;;
36191;SDS011;22233;42.708;23.360;2023-09-30T14:37:23;11.85;;;4.32;;
36191;SDS011;22233;42.708;23.360;2023-09-30T14:39:49;12.43;;;3.72;;
36191;SDS011;22233;42.708;23.360;2023-09-30T14:42:14;10.38;;;3.53;;
36191;SDS011;22233;42.708;23.360;2023-09-30T14:44:40;6.95;;;3.80;;
36191;SDS011;22233;42.708;23.360;2023-09-30T14:47:05;6.25;;;3.30;;
36191;SDS011;22233;42.708;23.360;2023-09-30T14:49:31;8.23;;;3.38;;
36191;SDS011;22233;42.708;23.360;2023-09-30T14:51:57;7.97;;;4.18;;